Time;durP1;ratioP1;P1;durP2;ratioP2;P2;SDS_P1;SDS_P2;PMS_P1;PMS_P2;Temp;Humidity;BMP_temperature;BMP_pressure;BME280_temperature;BME280_humidity;BME280_pressure;Samples;Min_cycle;Max_cycle;Signal;HPM_P1;HPM_P2
2022/08/26 00:00:29;;;;;;;16.02;12.32;;;20.60;99.90;;;;;;5026881;28;20387;-78
2022/08/26 00:02:55;;;;;;;18.17;12.75;;;20.50;99.90;;;;;;5000824;28;20039;-77
2022/08/26 00:05:21;;;;;;;13.82;12.00;;;20.60;99.90;;;;;;5027997;28;20061;-77
2022/08/26 00:07:46;;;;;;;16.65;12.85;;;20.70;99.90;;;;;;5014072;28;20053;-77
2022/08/26 00:10:13;;;;;;;17.00;12.48;;;20.60;99.90;;;;;;5028316;28;20030;-77
2022/08/26 00:12:39;;;;;;;18.00;11.80;;;20.80;99.90;;;;;;5001059;28;20029;-77
2022/08/26 00:15:07;;;;;;;19.13;11.90;;;20.90;99.90;;;;;;5013024;28;20073;-77
2022/08/26 00:17:34;;;;;;;18.27;12.88;;;20.60;99.90;;;;;;5026790;28;20013;-77
2022/08/26 00:19:59;;;;;;;18.80;12.70;;;20.60;99.90;;;;;;5013364;28;20023;-78
2022/08/26 00:22:25;;;;;;;15.55;12.48;;;20.30;99.90;;;;;;5024988;28;20036;-80
2022/08/26 00:24:51;;;;;;;16.50;11.95;;;20.60;99.90;;;;;;5011592;28;20029;-80
2022/08/26 00:27:17;;;;;;;20.30;13.13;;;20.70;99.90;;;;;;5023277;28;20053;-78
2022/08/26 00:29:42;;;;;;;16.52;12.65;;;20.70;99.90;;;;;;5006115;28;20488;-77
2022/08/26 00:32:08;;;;;;;21.40;12.85;;;20.70;99.90;;;;;;5006679;28;20037;-77
2022/08/26 00:34:33;;;;;;;15.63;12.23;;;20.90;99.90;;;;;;5007689;28;20025;-79
2022/08/26 00:36:59;;;;;;;16.67;13.23;;;20.60;99.90;;;;;;5023686;28;20037;-80
2022/08/26 00:39:25;;;;;;;18.75;12.32;;;20.50;99.90;;;;;;5027622;28;20029;-78
2022/08/26 00:41:50;;;;;;;17.48;11.15;;;20.50;99.90;;;;;;5027639;28;20089;-77
2022/08/26 00:44:17;;;;;;;18.30;13.15;;;20.50;99.90;;;;;;5005856;28;20022;-77
2022/08/26 00:46:46;;;;;;;17.52;12.98;;;20.50;99.90;;;;;;5011677;28;20072;-78
2022/08/26 00:49:19;;;;;;;18.05;13.00;;;20.50;99.90;;;;;;5004337;28;20026;-78
2022/08/26 00:51:51;;;;;;;18.98;12.25;;;20.50;99.90;;;;;;5002078;28;20061;-78
2022/08/26 00:54:20;;;;;;;16.50;12.68;;;20.50;99.90;;;;;;5006530;28;20026;-78
2022/08/26 00:57:04;;;;;;;17.73;12.30;;;20.60;99.90;;;;;;5007728;28;20455;-78
2022/08/26 00:59:31;;;;;;;18.38;12.93;;;20.60;99.90;;;;;;5026444;28;20056;-78
2022/08/26 01:01:56;;;;;;;18.23;13.38;;;20.60;99.90;;;;;;5004831;28;20030;-77
2022/08/26 01:04:23;;;;;;;20.02;13.80;;;20.50;99.90;;;;;;5028351;28;20521;-78
2022/08/26 01:06:51;;;;;;;15.13;12.02;;;20.40;99.90;;;;;;5014222;28;20050;-77
2022/08/26 01:09:18;;;;;;;17.52;13.15;;;20.30;99.90;;;;;;4998278;28;20023;-77
2022/08/26 01:11:46;;;;;;;16.42;13.10;;;20.30;99.90;;;;;;5010415;28;20037;-77
2022/08/26 01:14:13;;;;;;;20.30;13.13;;;20.10;99.90;;;;;;5009192;28;20022;-77
2022/08/26 01:16:39;;;;;;;15.38;12.75;;;20.60;99.90;;;;;;5009219;28;20025;-78
2022/08/26 01:19:26;;;;;;;18.42;12.75;;;20.50;99.90;;;;;;5023782;28;20571;-78
2022/08/26 01:22:06;;;;;;;19.38;13.25;;;20.30;99.90;;;;;;5001845;28;20030;-77
2022/08/26 01:24:32;;;;;;;17.45;13.32;;;20.30;99.90;;;;;;5010476;28;20106;-77
2022/08/26 01:27:02;;;;;;;18.90;13.23;;;20.40;99.90;;;;;;5005769;28;20105;-77
2022/08/26 01:29:29;;;;;;;20.67;13.40;;;20.30;99.90;;;;;;5013406;28;20088;-77
2022/08/26 01:31:56;;;;;;;20.30;14.15;;;20.20;99.90;;;;;;5023984;28;20030;-77
2022/08/26 01:34:39;;;;;;;22.85;12.88;;;20.20;99.90;;;;;;5026735;28;20026;-78
2022/08/26 01:37:14;;;;;;;19.13;13.20;;;19.40;99.90;;;;;;5009024;28;20026;-78
2022/08/26 01:39:41;;;;;;;20.63;13.93;;;18.90;99.90;;;;;;5011672;28;20098;-78
2022/08/26 01:42:11;;;;;;;19.05;13.38;;;19.10;99.90;;;;;;5019934;28;20603;-79
2022/08/26 01:44:46;;;;;;;19.35;14.00;;;19.50;99.90;;;;;;5016399;28;20079;-79
2022/08/26 01:47:16;;;;;;;18.55;13.75;;;19.10;99.90;;;;;;5018747;28;20026;-76
2022/08/26 01:49:44;;;;;;;19.00;14.18;;;19.20;99.90;;;;;;5020008;28;20033;-78
2022/08/26 01:52:14;;;;;;;20.15;13.52;;;19.30;99.90;;;;;;5022676;28;20093;-78
2022/08/26 01:54:40;;;;;;;19.40;13.25;;;19.40;99.90;;;;;;5017954;28;20049;-76
2022/08/26 01:57:06;;;;;;;20.85;14.15;;;19.30;99.90;;;;;;5002323;28;20029;-77
2022/08/26 01:59:33;;;;;;;21.63;14.25;;;19.40;99.90;;;;;;5001007;28;20053;-79
2022/08/26 02:01:59;;;;;;;20.08;13.65;;;19.30;99.90;;;;;;5016405;28;20024;-79
2022/08/26 02:04:34;;;;;;;21.92;13.32;;;19.40;99.90;;;;;;5016615;28;20038;-79
2022/08/26 02:07:06;;;;;;;20.65;14.07;;;19.50;99.90;;;;;;5005675;28;20072;-80
2022/08/26 02:09:32;;;;;;;22.05;14.30;;;19.50;99.90;;;;;;5005148;28;20026;-80
2022/08/26 02:12:00;;;;;;;20.00;14.65;;;19.60;99.90;;;;;;5028712;28;20435;-81
2022/08/26 02:14:34;;;;;;;19.27;14.15;;;19.60;99.90;;;;;;5003687;28;20022;-82
2022/08/26 02:17:02;;;;;;;20.13;14.27;;;19.20;99.90;;;;;;5007342;28;20488;-80
2022/08/26 02:19:34;;;;;;;21.05;14.02;;;19.20;99.90;;;;;;5009405;28;20075;-82
2022/08/26 02:22:03;;;;;;;18.80;14.35;;;19.20;99.90;;;;;;5006258;28;20026;-81
2022/08/26 02:24:52;;;;;;;20.95;14.00;;;19.40;99.90;;;;;;5003548;28;20037;-81
2022/08/26 02:27:22;;;;;;;22.45;14.20;;;19.40;99.90;;;;;;5004651;28;20033;-82
2022/08/26 02:29:54;;;;;;;23.65;15.18;;;19.10;99.90;;;;;;5006973;28;20054;-76
2022/08/26 02:32:19;;;;;;;23.88;13.90;;;19.20;99.90;;;;;;5006593;28;20072;-76
2022/08/26 02:34:45;;;;;;;22.08;14.50;;;19.10;99.90;;;;;;5003439;28;20467;-77
2022/08/26 02:37:11;;;;;;;23.30;14.68;;;19.20;99.90;;;;;;5001270;28;20023;-77
2022/08/26 02:39:40;;;;;;;19.23;14.13;;;19.20;99.90;;;;;;5023796;28;20387;-78
2022/08/26 02:42:06;;;;;;;18.38;13.57;;;19.30;99.90;;;;;;5020829;28;20116;-80
2022/08/26 02:44:32;;;;;;;22.80;14.45;;;19.20;99.90;;;;;;4997323;28;20062;-78
2022/08/26 02:46:58;;;;;;;22.38;14.70;;;19.40;99.90;;;;;;5016510;28;20045;-78
2022/08/26 02:49:25;;;;;;;21.42;13.98;;;19.40;99.90;;;;;;5007323;28;20034;-78
2022/08/26 02:51:51;;;;;;;21.52;13.32;;;19.40;99.90;;;;;;5015612;28;20037;-78
2022/08/26 02:54:20;;;;;;;21.60;14.05;;;19.50;99.90;;;;;;5012485;28;20025;-77
2022/08/26 02:56:46;;;;;;;19.92;13.60;;;19.60;99.90;;;;;;5026573;28;20033;-76
2022/08/26 02:59:12;;;;;;;24.95;13.73;;;19.50;99.90;;;;;;5005115;28;20026;-77
2022/08/26 03:01:39;;;;;;;20.75;15.02;;;19.70;99.90;;;;;;4997402;28;20022;-78
2022/08/26 03:04:08;;;;;;;25.00;14.38;;;18.90;99.90;;;;;;5007520;28;20559;-79
2022/08/26 03:06:35;;;;;;;20.58;15.05;;;18.70;99.90;;;;;;5008969;28;20034;-78
2022/08/26 03:09:01;;;;;;;21.23;14.82;;;18.70;99.90;;;;;;5005401;28;20399;-78
2022/08/26 03:11:27;;;;;;;23.80;15.23;;;18.60;99.90;;;;;;5001852;28;20104;-77
2022/08/26 03:13:54;;;;;;;23.67;15.65;;;18.40;99.90;;;;;;5004990;28;20476;-78
2022/08/26 03:16:19;;;;;;;18.65;14.13;;;18.30;99.90;;;;;;5007771;28;20161;-78
2022/08/26 03:18:45;;;;;;;22.05;14.52;;;18.40;99.90;;;;;;5002780;28;20080;-78
2022/08/26 03:21:16;;;;;;;20.98;14.40;;;18.50;99.90;;;;;;5028584;28;20104;-79
2022/08/26 03:23:43;;;;;;;18.13;14.23;;;18.40;99.90;;;;;;5003745;28;20488;-77
2022/08/26 03:26:11;;;;;;;21.10;15.02;;;18.70;99.90;;;;;;4995503;28;20506;-76
2022/08/26 03:31:22;;;;;;;20.00;13.57;;;18.80;99.90;;;;;;5019453;28;20399;-76
2022/08/26 03:33:48;;;;;;;18.00;13.85;;;19.00;99.90;;;;;;5020904;28;20264;-79
2022/08/26 03:36:14;;;;;;;23.85;14.25;;;18.80;99.90;;;;;;5003156;28;20080;-78
2022/08/26 03:38:40;;;;;;;23.63;14.43;;;18.80;99.90;;;;;;5028828;28;20053;-79
2022/08/26 03:41:07;;;;;;;24.13;15.43;;;18.90;99.90;;;;;;4997147;28;20033;-78
2022/08/26 03:43:33;;;;;;;24.10;15.68;;;18.50;99.90;;;;;;5022989;28;20447;-78
2022/08/26 03:46:04;;;;;;;23.55;15.63;;;18.30;99.90;;;;;;5013805;28;20116;-77
2022/08/26 03:48:29;;;;;;;20.77;15.13;;;17.90;99.90;;;;;;5015444;28;20068;-77
2022/08/26 03:50:55;;;;;;;25.98;15.43;;;18.10;99.90;;;;;;5027005;28;20025;-78
2022/08/26 03:53:22;;;;;;;21.55;15.10;;;18.40;99.90;;;;;;5023081;28;20026;-78
2022/08/26 03:55:47;;;;;;;22.77;15.50;;;18.20;99.90;;;;;;5005983;28;20048;-77
2022/08/26 03:58:13;;;;;;;24.67;15.02;;;18.20;99.90;;;;;;5005326;28;20481;-78
2022/08/26 04:00:38;;;;;;;22.75;15.25;;;18.40;99.90;;;;;;5016165;28;20026;-77
2022/08/26 04:03:04;;;;;;;19.90;13.23;;;18.30;99.90;;;;;;5015285;28;20120;-77
2022/08/26 04:05:29;;;;;;;23.55;14.85;;;18.30;99.90;;;;;;5048204;23;20044;-75
2022/08/26 04:07:55;;;;;;;23.70;16.13;;;18.30;99.90;;;;;;5032044;28;20041;-76
2022/08/26 04:10:23;;;;;;;20.63;15.20;;;18.20;99.90;;;;;;5031561;28;20017;-72
2022/08/26 04:12:50;;;;;;;27.30;14.98;;;18.00;99.90;;;;;;5026224;28;20014;-72
2022/08/26 04:15:16;;;;;;;21.55;16.08;;;18.10;99.90;;;;;;5039177;28;20398;-75
2022/08/26 04:17:42;;;;;;;25.08;16.90;;;18.10;99.90;;;;;;5051189;28;20467;-73
2022/08/26 04:20:09;;;;;;;27.67;16.55;;;18.20;99.90;;;;;;5051592;28;20029;-72
2022/08/26 04:22:34;;;;;;;22.58;15.13;;;18.20;99.90;;;;;;5037308;28;20075;-73
2022/08/26 04:25:00;;;;;;;27.35;16.27;;;18.10;99.90;;;;;;5051396;28;20450;-72
2022/08/26 04:27:26;;;;;;;27.00;16.40;;;18.20;99.90;;;;;;5051262;28;20044;-75
2022/08/26 04:29:51;;;;;;;32.65;17.17;;;17.70;99.90;;;;;;5051435;28;20064;-73
2022/08/26 04:32:17;;;;;;;24.92;16.98;;;17.20;99.90;;;;;;5037029;28;20083;-72
2022/08/26 04:34:43;;;;;;;21.80;14.88;;;17.20;99.90;;;;;;5031596;28;20036;-73
2022/08/26 04:37:09;;;;;;;22.35;15.57;;;17.60;99.90;;;;;;5031958;28;20430;-73
2022/08/26 04:39:35;;;;;;;19.65;15.25;;;17.90;99.90;;;;;;5040650;28;20025;-74
2022/08/26 04:42:01;;;;;;;26.83;15.30;;;18.00;99.90;;;;;;5051371;28;20090;-73
2022/08/26 04:44:29;;;;;;;27.08;15.60;;;18.20;99.90;;;;;;5050512;28;20033;-73
2022/08/26 04:46:55;;;;;;;27.08;15.82;;;18.30;99.90;;;;;;5044718;28;20051;-73
2022/08/26 04:49:21;;;;;;;24.30;16.35;;;18.10;99.90;;;;;;5031220;28;20037;-73
2022/08/26 04:51:47;;;;;;;27.70;17.48;;;17.90;99.90;;;;;;5032635;28;20038;-73
2022/08/26 04:54:14;;;;;;;27.27;17.20;;;17.70;99.90;;;;;;5051142;28;20029;-73
2022/08/26 04:56:42;;;;;;;24.00;16.90;;;17.60;99.90;;;;;;5051013;28;20033;-73
2022/08/26 04:59:11;;;;;;;28.27;16.33;;;17.80;99.90;;;;;;5050951;28;20021;-73
2022/08/26 05:01:42;;;;;;;23.73;15.95;;;17.90;99.90;;;;;;5051096;28;20025;-73
2022/08/26 05:04:08;;;;;;;28.90;16.65;;;18.20;99.90;;;;;;5050975;28;20022;-73
2022/08/26 05:06:34;;;;;;;25.65;16.70;;;18.20;99.90;;;;;;5050930;28;20021;-73
2022/08/26 05:08:59;;;;;;;26.38;17.42;;;17.70;99.90;;;;;;5050820;28;20033;-73
2022/08/26 05:11:25;;;;;;;28.80;16.67;;;17.50;99.90;;;;;;5050930;28;20028;-73
2022/08/26 05:13:50;;;;;;;23.63;15.07;;;17.70;99.90;;;;;;5051117;28;20040;-73
2022/08/26 05:16:16;;;;;;;23.95;15.48;;;18.00;99.90;;;;;;5051319;28;20418;-73
2022/08/26 05:18:43;;;;;;;24.42;16.38;;;18.30;99.90;;;;;;5050953;28;20103;-73
2022/08/26 05:21:21;;;;;;;22.10;16.40;;;18.50;99.90;;;;;;5050961;28;20074;-73
2022/08/26 05:23:50;;;;;;;25.55;16.27;;;18.10;99.90;;;;;;5051513;28;20029;-73
2022/08/26 05:26:16;;;;;;;23.95;16.50;;;18.20;99.90;;;;;;5054432;28;20028;-73
2022/08/26 05:28:42;;;;;;;23.30;15.88;;;17.90;99.90;;;;;;5054120;28;20082;-74
2022/08/26 05:31:16;;;;;;;24.58;16.23;;;17.90;99.90;;;;;;5054325;28;20378;-73
2022/08/26 05:33:42;;;;;;;21.88;15.55;;;17.80;99.90;;;;;;5054242;28;20107;-74
2022/08/26 05:36:12;;;;;;;27.58;15.93;;;17.80;99.90;;;;;;5054215;28;20084;-74
2022/08/26 05:38:38;;;;;;;24.17;15.60;;;;;;;;;;5046670;28;20395;-73
2022/08/26 05:41:16;;;;;;;23.77;17.23;;;18.30;99.90;;;;;;5053330;28;20553;-75
2022/08/26 05:43:42;;;;;;;24.65;16.75;;;18.60;99.90;;;;;;5053944;28;20021;-73
2022/08/26 05:46:09;;;;;;;25.83;17.25;;;18.40;99.90;;;;;;5046624;28;20031;-74
2022/08/26 05:48:34;;;;;;;23.77;17.25;;;18.40;99.90;;;;;;5036756;28;20430;-74
2022/08/26 05:51:03;;;;;;;24.65;17.67;;;18.40;99.90;;;;;;5034057;28;20083;-74
2022/08/26 05:53:30;;;;;;;22.90;17.38;;;18.50;99.90;;;;;;5049997;28;20033;-74
2022/08/26 05:55:55;;;;;;;22.83;16.52;;;18.80;99.90;;;;;;5053842;28;20549;-74
2022/08/26 05:58:22;;;;;;;25.80;16.90;;;19.00;99.90;;;;;;5053645;28;20103;-73
2022/08/26 06:01:16;;;;;;;23.65;17.80;;;19.20;99.90;;;;;;5053691;28;20032;-73
2022/08/26 06:03:45;;;;;;;26.00;16.50;;;19.10;99.90;;;;;;5049307;28;20061;-73
2022/08/26 06:06:18;;;;;;;28.95;16.58;;;19.00;99.90;;;;;;5053619;28;20037;-73
2022/08/26 06:08:45;;;;;;;25.60;16.55;;;19.20;99.90;;;;;;5053481;28;20079;-73
2022/08/26 06:11:13;;;;;;;25.40;17.25;;;19.50;99.90;;;;;;5052190;28;20033;-73
2022/08/26 06:13:39;;;;;;;24.70;16.50;;;19.50;99.90;;;;;;5053275;28;20482;-73
2022/08/26 06:16:07;;;;;;;30.52;17.83;;;19.50;99.90;;;;;;5052233;28;20052;-73
2022/08/26 06:18:37;;;;;;;28.30;17.05;;;19.60;99.90;;;;;;5053267;28;20482;-73
2022/08/26 06:21:31;;;;;;;29.42;17.52;;;19.60;99.90;;;;;;5053311;28;20029;-73
2022/08/26 06:26:49;;;;;;;24.25;16.52;;;19.90;99.90;;;;;;5053499;28;20040;-73
2022/08/26 06:29:16;;;;;;;20.88;15.90;;;19.90;99.90;;;;;;5053150;28;20032;-74
2022/08/26 06:31:42;;;;;;;23.90;16.33;;;20.10;99.90;;;;;;5051988;28;20032;-75
2022/08/26 06:34:07;;;;;;;32.92;16.38;;;20.20;99.90;;;;;;5052832;28;20465;-75
2022/08/26 06:36:33;;;;;;;49.50;33.53;;;20.30;99.90;;;;;;5052794;28;20078;-75
2022/08/26 06:39:08;;;;;;;25.48;15.50;;;20.50;99.90;;;;;;5052894;28;20032;-75
2022/08/26 06:41:34;;;;;;;31.13;24.30;;;20.60;99.90;;;;;;5053194;28;20113;-75
2022/08/26 06:44:01;;;;;;;59.05;40.47;;;20.80;99.90;;;;;;5052743;28;20053;-75
2022/08/26 06:46:28;;;;;;;37.05;26.25;;;20.80;99.90;;;;;;5046749;28;20047;-75
2022/08/26 06:48:54;;;;;;;49.83;39.80;;;21.00;99.90;;;;;;5034227;28;20029;-75
2022/08/26 06:51:23;;;;;;;48.75;33.75;;;21.30;99.90;;;;;;5032734;28;20021;-74
2022/08/26 06:53:51;;;;;;;132.30;96.30;;;21.50;99.90;;;;;;5050533;28;20406;-76
2022/08/26 06:56:23;;;;;;;23.55;14.20;;;21.60;99.90;;;;;;5052912;28;20029;-74
2022/08/26 06:58:50;;;;;;;26.15;13.82;;;21.80;99.90;;;;;;5019786;28;20030;-73
2022/08/26 07:01:21;;;;;;;24.50;14.05;;;22.00;99.90;;;;;;5032672;28;20172;-73
2022/08/26 07:03:50;;;;;;;37.85;22.45;;;22.20;99.90;;;;;;5032409;28;20032;-75
2022/08/26 07:06:19;;;;;;;26.02;14.35;;;22.20;99.90;;;;;;5032557;28;20104;-74
2022/08/26 07:08:46;;;;;;;23.65;13.27;;;22.40;99.90;;;;;;5031844;28;20031;-74
2022/08/26 07:11:12;;;;;;;40.00;14.35;;;22.40;99.90;;;;;;5032333;28;20530;-73
2022/08/26 07:13:38;;;;;;;26.35;14.48;;;22.60;99.90;;;;;;5030939;28;20116;-73
2022/08/26 07:16:05;;;;;;;27.00;14.75;;;22.70;99.90;;;;;;5047539;28;20094;-74
2022/08/26 07:18:33;;;;;;;30.15;15.65;;;22.70;99.90;;;;;;5051967;28;20028;-73
2022/08/26 07:21:04;;;;;;;62.60;16.65;;;23.10;99.90;;;;;;5052227;28;20029;-73
2022/08/26 07:23:31;;;;;;;24.92;13.48;;;22.70;99.90;;;;;;5052107;28;20112;-72
2022/08/26 07:25:57;;;;;;;22.63;13.10;;;22.80;99.90;;;;;;5051766;28;20024;-73
2022/08/26 07:28:23;;;;;;;20.25;13.70;;;22.80;99.90;;;;;;5051808;28;20025;-73
2022/08/26 07:30:48;;;;;;;27.63;13.80;;;22.80;99.90;;;;;;5050338;28;20040;-72
2022/08/26 07:33:16;;;;;;;20.15;13.32;;;22.80;99.90;;;;;;5050368;28;20024;-71
2022/08/26 07:35:43;;;;;;;26.58;13.50;;;22.80;99.90;;;;;;5050644;28;20065;-72
2022/08/26 07:38:10;;;;;;;23.67;13.88;;;23.00;99.90;;;;;;5051747;28;20490;-72
2022/08/26 07:40:36;;;;;;;24.10;13.82;;;23.10;99.90;;;;;;5051739;28;20040;-73
2022/08/26 07:43:02;;;;;;;36.33;14.93;;;23.00;99.90;;;;;;5051894;28;20044;-72
2022/08/26 07:45:28;;;;;;;28.75;13.93;;;23.30;99.90;;;;;;5044534;28;20394;-73
2022/08/26 07:47:54;;;;;;;25.73;14.15;;;23.40;99.90;;;;;;5041126;28;20112;-72
2022/08/26 07:50:21;;;;;;;22.58;13.13;;;23.50;99.90;;;;;;5031801;28;20498;-72
2022/08/26 07:52:47;;;;;;;27.60;14.48;;;23.60;99.90;;;;;;5041582;28;20028;-72
2022/08/26 07:55:12;;;;;;;24.75;12.93;;;23.80;99.90;;;;;;5050128;28;20021;-72
2022/08/26 07:57:38;;;;;;;30.20;13.73;;;24.00;99.90;;;;;;5051433;28;20086;-73
2022/08/26 08:00:07;;;;;;;24.42;13.35;;;24.20;99.90;;;;;;5051562;28;20099;-73
2022/08/26 08:02:33;;;;;;;25.77;14.00;;;24.30;99.90;;;;;;5051553;28;20021;-72
2022/08/26 08:04:58;;;;;;;24.70;13.60;;;24.50;99.90;;;;;;5051242;28;20407;-73
2022/08/26 08:07:25;;;;;;;22.63;13.45;;;24.30;99.90;;;;;;5051265;28;20013;-73
2022/08/26 08:09:51;;;;;;;29.75;13.90;;;24.60;99.90;;;;;;5051209;28;20048;-73
2022/08/26 08:12:18;;;;;;;27.20;12.18;;;24.90;99.90;;;;;;5051071;28;20029;-72
2022/08/26 08:14:45;;;;;;;22.88;12.73;;;25.10;99.90;;;;;;5051302;28;20450;-71
2022/08/26 08:17:12;;;;;;;26.45;13.40;;;25.20;99.90;;;;;;5051248;28;20064;-71
2022/08/26 08:19:37;;;;;;;26.58;13.68;;;25.00;99.90;;;;;;5051254;28;20071;-71
2022/08/26 08:22:04;;;;;;;25.58;12.98;;;25.10;99.90;;;;;;5051397;28;20020;-72
2022/08/26 08:24:32;;;;;;;24.25;12.63;;;25.30;99.90;;;;;;5051198;28;20112;-74
2022/08/26 08:26:58;;;;;;;24.70;13.32;;;25.20;99.90;;;;;;5051186;28;20086;-71
2022/08/26 08:29:24;;;;;;;21.52;12.93;;;25.20;99.90;;;;;;5051234;28;20032;-71
2022/08/26 08:31:50;;;;;;;27.58;12.63;;;25.30;99.90;;;;;;5051429;28;20033;-71
2022/08/26 08:34:17;;;;;;;25.00;13.35;;;25.30;99.90;;;;;;5051498;28;20017;-71
2022/08/26 08:36:45;;;;;;;20.23;11.63;;;25.50;99.90;;;;;;5051004;28;20028;-71
2022/08/26 08:39:11;;;;;;;27.40;12.45;;;25.50;99.90;;;;;;5050391;28;20548;-71
2022/08/26 08:42:08;;;;;;;26.67;12.30;;;25.40;99.90;;;;;;5050999;28;20395;-70
2022/08/26 08:44:39;;;;;;;25.08;11.07;;;25.50;99.90;;;;;;5049665;28;20025;-71
2022/08/26 08:47:33;;;;;;;28.30;11.15;;;25.60;99.90;;;;;;5044379;28;20026;-71
2022/08/26 08:50:10;;;;;;;24.25;11.15;;;25.80;99.90;;;;;;5031153;28;20025;-71
2022/08/26 08:52:36;;;;;;;21.15;10.40;;;26.10;99.90;;;;;;5039767;28;20064;-71
2022/08/26 08:55:04;;;;;;;23.13;10.70;;;26.10;99.90;;;;;;5051039;28;20028;-71
2022/08/26 08:57:48;;;;;;;22.05;10.35;;;26.10;99.90;;;;;;5051165;28;20021;-71
2022/08/26 09:00:17;;;;;;;28.83;10.65;;;26.30;99.90;;;;;;5054889;28;20021;-71
2022/08/26 09:02:58;;;;;;;25.10;9.93;;;26.30;99.90;;;;;;5054942;28;20032;-71
2022/08/26 09:05:30;;;;;;;26.15;10.45;;;26.30;99.90;;;;;;5054723;28;20033;-71
2022/08/26 09:08:07;;;;;;;24.77;10.00;;;26.20;99.90;;;;;;5053187;28;20028;-71
2022/08/26 09:10:54;;;;;;;23.42;9.35;;;26.50;99.90;;;;;;5054737;28;20025;-70
2022/08/26 09:13:21;;;;;;;25.58;11.55;;;26.50;99.90;;;;;;5054595;28;20412;-70
2022/08/26 09:16:10;;;;;;;22.08;10.65;;;26.20;99.90;;;;;;5053278;28;20017;-71
2022/08/26 09:18:45;;;;;;;21.77;10.68;;;26.00;99.90;;;;;;5054341;28;20025;-71
2022/08/26 09:21:13;;;;;;;26.48;10.25;;;25.90;99.90;;;;;;5054483;28;20112;-71
2022/08/26 09:23:40;;;;;;;25.02;10.02;;;25.80;99.90;;;;;;5054438;28;20074;-71
2022/08/26 09:26:39;;;;;;;28.83;9.82;;;25.90;99.90;;;;;;5052945;28;20031;-71
2022/08/26 09:29:13;;;;;;;25.33;9.38;;;26.20;99.90;;;;;;5053953;28;20104;-71
2022/08/26 09:31:40;;;;;;;25.73;10.10;;;26.30;99.90;;;;;;5054145;28;20383;-71
2022/08/26 09:34:14;;;;;;;24.67;10.30;;;26.30;99.90;;;;;;5054190;28;20520;-72
2022/08/26 09:36:42;;;;;;;28.20;10.43;;;26.40;99.90;;;;;;5043240;28;20156;-73
2022/08/26 09:39:26;;;;;;;26.77;10.77;;;26.60;99.90;;;;;;5034133;28;20025;-73
2022/08/26 09:42:11;;;;;;;22.80;9.35;;;27.00;99.90;;;;;;5034323;28;20036;-72
2022/08/26 09:45:03;;;;;;;23.30;9.38;;;27.20;99.90;;;;;;5044589;28;20028;-73
2022/08/26 09:47:50;;;;;;;25.52;10.00;;;27.30;99.90;;;;;;5040465;28;20364;-73
2022/08/26 09:50:34;;;;;;;;;;;27.10;99.90;;;;;;5038622;28;20022;-73
2022/08/26 09:53:16;;;;;;;26.52;9.95;;;26.70;99.90;;;;;;5032652;28;19905;-73
2022/08/26 09:55:46;;;;;;;25.95;10.15;;;26.50;99.90;;;;;;5029310;28;20021;-73
2022/08/26 09:58:31;;;;;;;25.27;10.85;;;26.70;99.90;;;;;;5038761;28;20103;-73
2022/08/26 10:01:00;;;;;;;24.67;10.07;;;27.00;99.90;;;;;;5036064;28;20045;-73
2022/08/26 10:03:29;;;;;;;20.73;9.85;;;27.10;99.90;;;;;;5033716;28;20026;-73
2022/08/26 10:06:06;;;;;;;24.63;10.25;;;27.50;99.90;;;;;;5031228;28;20060;-73
2022/08/26 10:08:42;;;;;;;28.48;9.98;;;27.80;99.90;;;;;;5044355;22;20038;-75
2022/08/26 10:11:21;;;;;;;22.67;10.65;;;27.80;99.90;;;;;;5011010;28;20034;-75
2022/08/26 10:13:51;;;;;;;27.85;10.52;;;27.50;99.90;;;;;;5013686;28;20026;-75
2022/08/26 10:16:22;;;;;;;26.80;11.07;;;27.20;99.90;;;;;;5013650;28;20490;-74
2022/08/26 10:19:18;;;;;;;27.20;10.85;;;27.10;99.90;;;;;;5007193;28;20488;-75
2022/08/26 10:21:55;;;;;;;28.07;10.50;;;27.10;99.90;;;;;;4981063;28;20492;-75
2022/08/26 10:24:43;;;;;;;31.58;11.13;;;27.20;99.90;;;;;;4992634;28;20415;-74
2022/08/26 10:27:29;;;;;;;30.17;10.57;;;27.20;99.90;;;;;;4988466;28;20408;-75
2022/08/26 10:30:01;;;;;;;26.42;11.32;;;27.20;99.90;;;;;;4985420;28;20469;-75
2022/08/26 10:32:35;;;;;;;21.23;11.23;;;27.80;99.90;;;;;;4999560;28;20448;-74
2022/08/26 10:35:02;;;;;;;25.88;11.05;;;28.10;99.90;;;;;;4993888;28;20026;-75
2022/08/26 10:37:38;;;;;;;19.70;9.68;;;27.90;99.90;;;;;;4992065;28;20026;-75
2022/08/26 10:40:04;;;;;;;;;;;27.70;99.90;;;;;;5000290;28;20037;-73
2022/08/26 10:43:11;;;;;;;23.58;10.15;;;27.00;99.90;;;;;;4993583;28;19910;-72
2022/08/26 10:45:42;;;;;;;28.17;11.20;;;26.60;99.90;;;;;;4993388;28;20053;-73
2022/08/26 10:48:15;;;;;;;22.27;10.70;;;26.30;99.90;;;;;;4993069;28;20030;-73
2022/08/26 10:50:43;;;;;;;21.35;10.88;;;26.20;99.90;;;;;;4993478;28;20369;-74
2022/08/26 10:53:12;;;;;;;23.48;11.23;;;26.00;99.90;;;;;;4992137;28;20196;-74
2022/08/26 10:55:46;;;;;;;21.42;10.95;;;25.70;99.90;;;;;;4992087;28;20019;-74
2022/08/26 10:58:32;;;;;;;19.65;11.23;;;25.40;99.90;;;;;;4993079;28;20022;-75
2022/08/26 11:04:08;;;;;;;19.15;11.20;;;25.40;99.90;;;;;;4993401;28;20382;-74
2022/08/26 11:06:34;;;;;;;22.20;11.73;;;25.60;99.90;;;;;;4998228;28;20026;-77
2022/08/26 11:09:05;;;;;;;20.42;11.60;;;25.40;99.90;;;;;;4997542;28;20394;-76
2022/08/26 11:11:40;;;;;;;23.00;10.98;;;25.40;99.90;;;;;;4993171;28;20019;-76
2022/08/26 11:14:20;;;;;;;22.58;10.43;;;25.30;99.90;;;;;;4992969;28;20041;-76
2022/08/26 11:16:52;;;;;;;25.60;11.07;;;25.20;99.90;;;;;;4995455;28;20030;-75
2022/08/26 11:19:39;;;;;;;22.70;10.73;;;25.30;99.90;;;;;;4992853;28;20069;-74
2022/08/26 11:22:24;;;;;;;23.98;10.77;;;25.50;99.90;;;;;;4985780;28;20441;-72
2022/08/26 11:24:55;;;;;;;25.55;11.65;;;25.80;99.90;;;;;;4992799;28;20061;-72
2022/08/26 11:27:36;;;;;;;18.63;10.65;;;26.10;99.90;;;;;;4998064;28;20019;-72
2022/08/26 11:30:16;;;;;;;19.10;10.25;;;25.90;99.90;;;;;;4992705;28;20034;-73
2022/08/26 11:32:42;;;;;;;19.20;9.75;;;25.90;99.90;;;;;;4992735;28;20030;-73
2022/08/26 11:35:12;;;;;;;24.77;10.65;;;26.00;99.90;;;;;;5002614;28;20439;-73
2022/08/26 11:37:47;;;;;;;23.40;9.70;;;26.00;99.90;;;;;;5011739;28;20026;-72
2022/08/26 11:40:37;;;;;;;18.05;9.90;;;26.40;99.90;;;;;;5012218;28;20053;-72
2022/08/26 11:43:19;;;;;;;21.85;10.32;;;26.70;99.90;;;;;;5012198;28;20021;-72
2022/08/26 11:45:47;;;;;;;16.63;8.80;;;26.90;99.90;;;;;;5000963;28;20022;-71
2022/08/26 11:48:20;;;;;;;20.10;9.18;;;26.80;99.90;;;;;;4992175;28;20026;-72
2022/08/26 11:50:54;;;;;;;19.42;10.15;;;27.10;99.90;;;;;;4992357;28;20527;-73
2022/08/26 11:53:21;;;;;;;17.17;9.25;;;27.20;99.90;;;;;;4987019;28;20026;-72
2022/08/26 11:55:48;;;;;;;20.83;9.23;;;27.50;99.90;;;;;;4992504;28;20508;-72
2022/08/26 11:58:15;;;;;;;20.40;9.57;;;27.60;99.90;;;;;;4992101;28;20480;-72
2022/08/26 12:00:46;;;;;;;22.77;9.85;;;27.60;99.90;;;;;;4992487;28;20050;-72
2022/08/26 12:03:18;;;;;;;22.20;9.85;;;27.60;99.90;;;;;;4992322;28;20037;-73
2022/08/26 12:05:46;;;;;;;17.42;8.93;;;27.70;99.90;;;;;;4992455;28;20038;-70
2022/08/26 12:08:17;;;;;;;39.33;10.95;;;27.90;99.90;;;;;;5008023;28;20030;-71
2022/08/26 12:10:43;;;;;;;21.60;9.40;;;28.00;99.90;;;;;;5012194;28;20049;-72
2022/08/26 12:13:21;;;;;;;25.85;9.48;;;28.20;99.90;;;;;;5011419;28;20069;-70
2022/08/26 12:15:55;;;;;;;27.00;9.63;;;28.40;99.90;;;;;;4992112;28;20498;-72
2022/08/26 12:18:24;;;;;;;23.48;9.82;;;29.00;99.90;;;;;;4995310;28;20119;-73
2022/08/26 12:20:54;;;;;;;30.13;9.90;;;29.40;99.90;;;;;;4986730;28;20495;-72
2022/08/26 12:23:33;;;;;;;23.05;9.27;;;29.80;99.90;;;;;;5011837;28;20091;-71
2022/08/26 12:26:10;;;;;;;26.23;11.02;;;29.80;99.90;;;;;;5011694;28;20022;-71
2022/08/26 12:28:44;;;;;;;21.85;10.68;;;29.50;99.90;;;;;;4993757;28;20052;-71
2022/08/26 12:31:10;;;;;;;24.00;9.02;;;29.40;99.90;;;;;;4995884;28;20045;-71
2022/08/26 12:33:36;;;;;;;21.17;9.23;;;29.60;99.90;;;;;;4994233;28;20027;-71
2022/08/26 12:36:04;;;;;;;18.50;9.05;;;29.30;99.90;;;;;;4995971;28;20097;-71
2022/08/26 12:38:33;;;;;;;25.90;8.55;;;29.20;99.90;;;;;;4995228;28;20042;-71
2022/08/26 12:40:59;;;;;;;20.85;8.25;;;29.10;99.90;;;;;;5001757;28;20022;-72
2022/08/26 12:43:43;;;;;;;20.33;9.20;;;29.30;99.90;;;;;;4999929;28;20369;-74
2022/08/26 12:46:16;;;;;;;25.92;9.32;;;30.00;99.90;;;;;;4990577;28;20048;-72
2022/08/26 12:48:46;;;;;;;25.80;8.90;;;31.60;99.90;;;;;;5000561;28;20749;-71
2022/08/26 12:51:33;;;;;;;25.63;9.35;;;32.50;99.90;;;;;;4995764;28;20073;-72